Time;durP1;ratioP1;P1;durP2;ratioP2;P2;SDS_P1;SDS_P2;PMS_P1;PMS_P2;Temp;Humidity;BMP_temperature;BMP_pressure;BME280_temperature;BME280_humidity;BME280_pressure;Samples;Min_cycle;Max_cycle;Signal;HPM_P1;HPM_P2
2023/12/20 00:01:33;;;;;;;2.58;1.70;;;;;;;-144.57;100.00;62443.72;5015908;28;20037;-60
2023/12/20 00:03:59;;;;;;;4.28;1.58;;;;;;;-144.57;100.00;62443.72;5034086;28;20045;-60
2023/12/20 00:06:25;;;;;;;1.73;1.63;;;;;;;-144.57;100.00;62443.72;5033892;28;20098;-61
2023/12/20 00:08:50;;;;;;;2.05;1.42;;;;;;;-144.57;100.00;62443.72;5033759;28;20042;-63
2023/12/20 00:11:16;;;;;;;1.88;1.60;;;;;;;-144.57;100.00;62443.72;4999624;28;20626;-61
2023/12/20 00:13:42;;;;;;;1.33;1.23;;;;;;;-144.57;100.00;62443.72;5033764;28;20068;-60
2023/12/20 00:16:09;;;;;;;2.20;1.58;;;;;;;-144.57;100.00;62443.72;5033781;28;20156;-63
2023/12/20 00:18:35;;;;;;;1.55;1.45;;;;;;;-144.57;100.00;62443.72;5033081;28;20045;-60
2023/12/20 00:21:01;;;;;;;2.17;1.30;;;;;;;-144.57;100.00;62443.72;4999543;28;20038;-60
2023/12/20 00:23:26;;;;;;;2.17;1.30;;;;;;;-144.57;100.00;62443.72;5015708;28;20041;-60
2023/12/20 00:25:52;;;;;;;2.25;1.20;;;;;;;-144.57;100.00;62443.72;5033230;28;20091;-60
2023/12/20 00:28:18;;;;;;;1.40;1.30;;;;;;;-144.57;100.00;62443.72;5033430;28;20049;-60
2023/12/20 00:30:44;;;;;;;1.30;1.23;;;;;;;-144.57;100.00;62443.72;5033119;28;20044;-61
2023/12/20 00:33:10;;;;;;;1.35;1.10;;;;;;;-144.57;100.00;62443.72;5032699;28;20053;-60
2023/12/20 00:35:35;;;;;;;2.72;1.50;;;;;;;-144.57;100.00;62443.72;5015068;28;20068;-59
2023/12/20 00:38:02;;;;;;;1.60;1.20;;;;;;;-144.57;100.00;62443.72;5032361;28;20042;-61
2023/12/20 00:40:27;;;;;;;2.83;1.30;;;;;;;-144.57;100.00;62443.72;4996189;28;20042;-61
2023/12/20 00:42:53;;;;;;;1.30;1.20;;;;;;;-144.57;100.00;62443.72;5013111;28;20046;-61
2023/12/20 00:45:19;;;;;;;2.08;1.30;;;;;;;-144.57;100.00;62443.72;4981587;28;20053;-62
2023/12/20 00:47:45;;;;;;;1.10;1.10;;;;;;;-144.57;100.00;62443.72;5033183;28;20045;-60
2023/12/20 00:50:10;;;;;;;1.75;1.10;;;;;;;-144.57;100.00;62443.72;5014723;28;20041;-62
2023/12/20 00:52:36;;;;;;;0.95;0.90;;;;;;;-144.57;100.00;62443.72;5032301;28;20049;-61
2023/12/20 00:55:03;;;;;;;1.50;1.20;;;;;;;-144.57;100.00;62443.72;5032781;28;20037;-61
2023/12/20 00:57:29;;;;;;;1.98;1.27;;;;;;;-144.57;100.00;62443.72;5015033;28;20042;-60
2023/12/20 00:59:55;;;;;;;1.75;1.20;;;;;;;-144.57;100.00;62443.72;5032057;28;20041;-61
2023/12/20 01:02:20;;;;;;;2.05;1.35;;;;;;;-144.57;100.00;62443.72;5013496;28;20045;-61
2023/12/20 01:04:46;;;;;;;1.27;1.10;;;;;;;-144.57;100.00;62443.72;5031432;28;20081;-61
2023/12/20 01:07:12;;;;;;;1.67;1.35;;;;;;;-144.57;100.00;62443.72;5031369;28;20057;-62
2023/12/20 01:09:38;;;;;;;1.50;1.40;;;;;;;-144.57;100.00;62443.72;5032214;28;20049;-60
2023/12/20 01:12:04;;;;;;;3.15;1.55;;;;;;;-144.57;100.00;62443.72;5032174;28;20120;-61
2023/12/20 01:14:29;;;;;;;2.90;1.85;;;;;;;-144.57;100.00;62443.72;5037018;28;20041;-61
2023/12/20 01:16:55;;;;;;;2.53;1.65;;;;;;;-144.57;100.00;62443.72;5034955;28;20033;-62
2023/12/20 01:19:21;;;;;;;2.58;1.70;;;;;;;-144.57;100.00;62443.72;5048491;28;20048;-61
2023/12/20 01:21:47;;;;;;;1.70;1.60;;;;;;;-144.57;100.00;62443.72;5050527;28;20047;-61
2023/12/20 01:24:12;;;;;;;2.63;1.77;;;;;;;-144.57;100.00;62443.72;5032510;28;20052;-61
2023/12/20 01:26:38;;;;;;;1.75;1.55;;;;;;;-144.57;100.00;62443.72;5031714;28;20037;-61
2023/12/20 01:29:04;;;;;;;1.77;1.63;;;;;;;-144.57;100.00;62443.72;4997667;28;20410;-61
2023/12/20 01:31:30;;;;;;;3.30;2.10;;;;;;;-144.57;100.00;62443.72;5031923;28;20084;-61
2023/12/20 01:33:56;;;;;;;1.73;1.60;;;;;;;-144.57;100.00;62443.72;5010707;28;20049;-60
2023/12/20 01:36:21;;;;;;;1.80;1.60;;;;;;;-144.57;100.00;62443.72;5011982;28;20063;-61
2023/12/20 01:38:47;;;;;;;3.72;1.50;;;;;;;-144.57;100.00;62443.72;5017379;28;20051;-60
2023/12/20 01:41:13;;;;;;;3.35;1.80;;;;;;;-144.57;100.00;62443.72;5032033;28;20041;-62
2023/12/20 01:43:39;;;;;;;4.43;1.80;;;;;;;-144.57;100.00;62443.72;5030073;28;20085;-60
2023/12/20 01:46:05;;;;;;;1.90;1.60;;;;;;;-144.57;100.00;62443.72;5011328;28;20038;-62
2023/12/20 01:48:33;;;;;;;2.15;1.80;;;;;;;-144.57;100.00;62443.72;5009791;28;20046;-61
2023/12/20 01:51:00;;;;;;;2.65;1.73;;;;;;;-144.57;100.00;62443.72;5010862;28;20037;-61
2023/12/20 01:53:27;;;;;;;1.88;1.73;;;;;;;-144.57;100.00;62443.72;5012043;28;20046;-61
2023/12/20 01:55:55;;;;;;;3.05;2.00;;;;;;;-144.57;100.00;62443.72;5010463;28;20037;-61
2023/12/20 01:58:21;;;;;;;2.67;2.30;;;;;;;-144.57;100.00;62443.72;5010873;28;20072;-61
2023/12/20 02:00:48;;;;;;;3.67;2.00;;;;;;;-144.57;100.00;62443.72;5011583;28;20087;-62
2023/12/20 02:03:13;;;;;;;4.43;2.65;;;;;;;-144.57;100.00;62443.72;5010586;28;20072;-61
2023/12/20 02:05:39;;;;;;;3.58;2.30;;;;;;;-144.57;100.00;62443.72;5010867;28;20494;-61
2023/12/20 02:08:06;;;;;;;3.15;2.20;;;;;;;-144.57;100.00;62443.72;5010417;28;20049;-59
2023/12/20 02:10:32;;;;;;;3.92;2.10;;;;;;;-144.57;100.00;62443.72;5011728;28;20041;-60
2023/12/20 02:12:58;;;;;;;3.55;1.98;;;;;;;-144.57;100.00;62443.72;5011737;28;20407;-60
2023/12/20 02:15:23;;;;;;;2.88;2.10;;;;;;;-144.57;100.00;62443.72;5011884;28;20084;-61
2023/12/20 02:17:50;;;;;;;3.67;2.00;;;;;;;-144.57;100.00;62443.72;5010715;28;20057;-60
2023/12/20 02:20:35;;;;;;;3.03;2.13;;;;;;;-144.57;100.00;62443.72;5010940;28;20427;-59
2023/12/20 02:23:01;;;;;;;2.35;1.80;;;;;;;-144.57;100.00;62443.72;5010179;28;20054;-61
2023/12/20 02:25:27;;;;;;;2.22;1.80;;;;;;;-144.57;100.00;62443.72;5010731;28;20050;-64
2023/12/20 02:27:52;;;;;;;3.17;2.00;;;;;;;-144.57;100.00;62443.72;5011638;28;20046;-60
2023/12/20 02:30:18;;;;;;;2.97;1.83;;;;;;;-144.57;100.00;62443.72;5011517;28;20450;-62
2023/12/20 02:32:44;;;;;;;2.50;1.90;;;;;;;-144.57;100.00;62443.72;5012923;28;20046;-62
2023/12/20 02:35:10;;;;;;;3.47;1.83;;;;;;;-144.57;100.00;62443.72;5031184;28;20452;-60
2023/12/20 02:37:37;;;;;;;2.53;1.75;;;;;;;-144.57;100.00;62443.72;5031337;28;20053;-60
2023/12/20 02:40:04;;;;;;;1.80;1.60;;;;;;;-144.57;100.00;62443.72;5031104;28;20045;-62
2023/12/20 02:42:30;;;;;;;1.83;1.70;;;;;;;-144.57;100.00;62443.72;5030896;28;20046;-61
2023/12/20 02:44:56;;;;;;;1.85;1.60;;;;;;;-144.57;100.00;62443.72;5030443;28;20079;-62
2023/12/20 02:47:21;;;;;;;4.22;1.70;;;;;;;-144.57;100.00;62443.72;5030980;28;20076;-60
2023/12/20 02:49:47;;;;;;;1.58;1.45;;;;;;;-144.57;100.00;62443.72;5036010;28;20037;-62
2023/12/20 02:52:13;;;;;;;2.22;1.60;;;;;;;-144.57;100.00;62443.72;5031088;28;20037;-60
2023/12/20 02:54:39;;;;;;;3.45;1.90;;;;;;;-144.57;100.00;62443.72;5031215;28;20103;-61
2023/12/20 02:57:05;;;;;;;3.20;1.73;;;;;;;-144.57;100.00;62443.72;5031188;28;20167;-61
2023/12/20 02:59:30;;;;;;;3.22;1.70;;;;;;;-144.57;100.00;62443.72;5033760;28;20034;-61
2023/12/20 03:01:56;;;;;;;2.97;1.80;;;;;;;-144.57;100.00;62443.72;5034940;28;20407;-62
2023/12/20 03:04:22;;;;;;;3.70;1.85;;;;;;;-144.57;100.00;62443.72;5035010;28;20065;-62
2023/12/20 03:06:47;;;;;;;2.15;1.77;;;;;;;-144.57;100.00;62443.72;5034858;28;20694;-63
2023/12/20 03:09:13;;;;;;;3.38;2.15;;;;;;;-144.57;100.00;62443.72;5035072;28;20506;-61
2023/12/20 03:11:39;;;;;;;2.80;1.75;;;;;;;-144.57;100.00;62443.72;5034123;28;20412;-61
2023/12/20 03:14:05;;;;;;;4.65;2.05;;;;;;;-144.57;100.00;62443.72;5035042;28;20041;-60
2023/12/20 03:16:32;;;;;;;2.60;2.05;;;;;;;-144.57;100.00;62443.72;5034804;28;20038;-62
2023/12/20 03:18:58;;;;;;;3.40;2.42;;;;;;;-144.57;100.00;62443.72;5034835;28;20495;-61
2023/12/20 03:21:24;;;;;;;2.05;1.80;;;;;;;-144.57;100.00;62443.72;4997742;28;20056;-62
2023/12/20 03:23:50;;;;;;;5.30;1.90;;;;;;;-144.57;100.00;62443.72;4981317;28;20056;-62
2023/12/20 03:26:15;;;;;;;3.33;2.00;;;;;;;-144.57;100.00;62443.72;5015145;28;20100;-63
2023/12/20 03:28:41;;;;;;;2.80;2.17;;;;;;;-144.57;100.00;62443.72;5023317;28;20041;-61
2023/12/20 03:31:07;;;;;;;7.03;2.40;;;;;;;-144.57;100.00;62443.72;5034358;28;20045;-63
2023/12/20 03:33:32;;;;;;;2.25;1.80;;;;;;;-144.57;100.00;62443.72;5033684;28;20167;-63
2023/12/20 03:35:58;;;;;;;2.53;2.13;;;;;;;-144.57;100.00;62443.72;5016747;28;20152;-62
2023/12/20 03:38:24;;;;;;;3.10;1.75;;;;;;;-144.57;100.00;62443.72;5016551;28;20041;-60
2023/12/20 03:40:50;;;;;;;2.60;2.15;;;;;;;-144.57;100.00;62443.72;5034068;28;20458;-61
2023/12/20 03:43:16;;;;;;;3.05;1.80;;;;;;;-144.57;100.00;62443.72;5033946;28;20462;-61
2023/12/20 03:45:43;;;;;;;2.70;1.70;;;;;;;-144.57;100.00;62443.72;5034099;28;20111;-63
2023/12/20 03:48:09;;;;;;;1.88;1.77;;;;;;;-144.57;100.00;62443.72;5034228;28;20470;-60
2023/12/20 03:50:35;;;;;;;4.50;1.95;;;;;;;-144.57;100.00;62443.72;5016536;28;20120;-63
2023/12/20 03:53:01;;;;;;;3.47;1.88;;;;;;;-144.57;100.00;62443.72;5033527;28;20045;-61
2023/12/20 03:55:27;;;;;;;2.78;2.10;;;;;;;-144.57;100.00;62443.72;5034136;28;20068;-61
2023/12/20 03:57:52;;;;;;;4.78;2.00;;;;;;;-144.57;100.00;62443.72;5033999;28;20490;-62
2023/12/20 04:00:18;;;;;;;3.67;2.08;;;;;;;-144.57;100.00;62443.72;5033775;28;20083;-61
2023/12/20 04:02:44;;;;;;;2.42;1.98;;;;;;;-144.57;100.00;62443.72;5033734;28;20456;-61
2023/12/20 04:05:10;;;;;;;2.85;2.10;;;;;;;-144.57;100.00;62443.72;5015957;28;20065;-64
2023/12/20 04:07:36;;;;;;;3.53;2.15;;;;;;;-144.57;100.00;62443.72;5033590;28;20055;-61
2023/12/20 04:10:03;;;;;;;3.20;2.50;;;;;;;-144.57;100.00;62443.72;5032262;28;20100;-63
2023/12/20 04:12:31;;;;;;;3.08;2.33;;;;;;;-144.57;100.00;62443.72;5032949;28;20080;-61
2023/12/20 04:14:57;;;;;;;2.78;1.95;;;;;;;-144.57;100.00;62443.72;4999260;28;20680;-63
2023/12/20 04:17:23;;;;;;;2.72;2.50;;;;;;;-144.57;100.00;62443.72;5033601;28;20107;-60
2023/12/20 04:19:49;;;;;;;3.38;2.58;;;;;;;-144.57;100.00;62443.72;5033243;28;20507;-62
2023/12/20 04:22:15;;;;;;;3.80;2.80;;;;;;;-144.57;100.00;62443.72;5033108;28;20600;-62
2023/12/20 04:24:44;;;;;;;3.58;2.42;;;;;;;-144.57;100.00;62443.72;5033147;28;20037;-62
2023/12/20 04:27:10;;;;;;;4.22;2.67;;;;;;;-144.57;100.00;62443.72;5033342;28;20052;-60
2023/12/20 04:29:35;;;;;;;4.13;3.20;;;;;;;-144.57;100.00;62443.72;5041174;28;20048;-62
2023/12/20 04:32:01;;;;;;;4.35;2.67;;;;;;;-144.57;100.00;62443.72;5020494;28;20037;-60
2023/12/20 04:34:27;;;;;;;3.42;2.58;;;;;;;-144.57;100.00;62443.72;5032775;28;20065;-61
2023/12/20 04:36:53;;;;;;;4.00;2.47;;;;;;;-144.57;100.00;62443.72;5031782;28;20308;-61
2023/12/20 04:39:19;;;;;;;3.47;2.72;;;;;;;-144.57;100.00;62443.72;5032831;28;20090;-62
2023/12/20 04:41:44;;;;;;;3.15;2.30;;;;;;;-144.57;100.00;62443.72;5015427;28;20045;-60
2023/12/20 04:44:10;;;;;;;2.88;2.35;;;;;;;-144.57;100.00;62443.72;5014880;28;20423;-62
2023/12/20 04:46:36;;;;;;;3.45;2.47;;;;;;;-144.57;100.00;62443.72;5033107;28;20089;-63
2023/12/20 04:49:02;;;;;;;5.32;2.17;;;;;;;-144.57;100.00;62443.72;4994972;28;20478;-61
2023/12/20 04:51:28;;;;;;;2.75;2.20;;;;;;;-144.57;100.00;62443.72;5026558;28;20037;-62
2023/12/20 04:53:53;;;;;;;2.88;2.03;;;;;;;-144.57;100.00;62443.72;5032934;28;20495;-61
2023/12/20 04:56:19;;;;;;;3.75;2.03;;;;;;;-144.57;100.00;62443.72;5032954;28;20049;-62
2023/12/20 04:58:45;;;;;;;3.60;2.20;;;;;;;-144.57;100.00;62443.72;5014829;28;20057;-62
2023/12/20 05:01:11;;;;;;;5.20;2.30;;;;;;;-144.57;100.00;62443.72;5015034;28;20499;-61
2023/12/20 05:03:37;;;;;;;2.80;2.20;;;;;;;-144.57;100.00;62443.72;4997417;28;20434;-60
2023/12/20 05:06:03;;;;;;;2.88;2.22;;;;;;;-144.57;100.00;62443.72;4997102;28;20042;-61
2023/12/20 05:08:29;;;;;;;2.58;2.00;;;;;;;-144.57;100.00;62443.72;5017327;28;20041;-61
2023/12/20 05:10:55;;;;;;;3.85;1.92;;;;;;;-144.57;100.00;62443.72;5032609;28;20041;-60
2023/12/20 05:13:21;;;;;;;2.70;1.85;;;;;;;-144.57;100.00;62443.72;5032657;28;20080;-60
2023/12/20 05:15:47;;;;;;;2.47;1.65;;;;;;;-144.57;100.00;62443.72;5031778;28;20068;-59
2023/12/20 05:18:13;;;;;;;2.33;1.77;;;;;;;-144.57;100.00;62443.72;5032578;28;20071;-58
2023/12/20 05:20:39;;;;;;;3.53;1.73;;;;;;;-144.57;100.00;62443.72;5010165;28;20037;-60
2023/12/20 05:23:05;;;;;;;2.50;1.80;;;;;;;-144.57;100.00;62443.72;5012328;28;20053;-57
2023/12/20 05:25:31;;;;;;;4.03;1.85;;;;;;;-144.57;100.00;62443.72;4978571;28;20068;-63
2023/12/20 05:27:57;;;;;;;6.78;1.90;;;;;;;-144.57;100.00;62443.72;5012333;28;20125;-59
2023/12/20 05:30:23;;;;;;;5.78;2.45;;;;;;;-144.57;100.00;62443.72;4980553;28;20458;-62
2023/12/20 05:32:48;;;;;;;3.22;1.80;;;;;;;-144.57;100.00;62443.72;5032167;28;20061;-59
2023/12/20 05:35:15;;;;;;;3.33;1.95;;;;;;;-144.57;100.00;62443.72;5032449;28;20128;-58
2023/12/20 05:37:41;;;;;;;4.72;1.70;;;;;;;-144.57;100.00;62443.72;5030841;28;20053;-60
2023/12/20 05:40:10;;;;;;;3.53;1.95;;;;;;;-144.57;100.00;62443.72;5031414;28;20046;-61
2023/12/20 05:42:37;;;;;;;3.97;1.90;;;;;;;-144.57;100.00;62443.72;5029210;28;20307;-61
2023/12/20 05:45:05;;;;;;;2.22;1.80;;;;;;;-144.57;100.00;62443.72;5030959;28;20044;-61
2023/12/20 05:47:32;;;;;;;2.25;1.95;;;;;;;-144.57;100.00;62443.72;5013694;28;20045;-60
2023/12/20 05:49:58;;;;;;;1.60;1.50;;;;;;;-144.57;100.00;62443.72;5021189;28;20046;-61
2023/12/20 05:52:24;;;;;;;5.82;2.05;;;;;;;-144.57;100.00;62443.72;5032313;28;20437;-61
2023/12/20 05:54:50;;;;;;;5.97;2.95;;;;;;;-144.57;100.00;62443.72;5031668;28;20041;-61
2023/12/20 05:57:16;;;;;;;5.25;2.47;;;;;;;-144.57;100.00;62443.72;5032016;28;20100;-61
2023/12/20 05:59:42;;;;;;;3.15;2.22;;;;;;;-144.57;100.00;62443.72;5014144;28;20092;-61
2023/12/20 06:02:07;;;;;;;6.40;2.25;;;;;;;-144.57;100.00;62443.72;5031302;28;20046;-60
2023/12/20 06:04:33;;;;;;;2.97;2.30;;;;;;;-144.57;100.00;62443.72;5013429;28;20037;-60
2023/12/20 06:06:59;;;;;;;4.28;2.63;;;;;;;-144.57;100.00;62443.72;4997476;28;20033;-61
2023/12/20 06:09:27;;;;;;;5.18;2.90;;;;;;;-144.57;100.00;62443.72;5031296;28;20111;-61
2023/12/20 06:11:53;;;;;;;3.80;2.50;;;;;;;-144.57;100.00;62443.72;5015191;28;20122;-60
2023/12/20 06:14:19;;;;;;;4.35;2.85;;;;;;;-144.57;100.00;62443.72;5031665;28;20052;-60
2023/12/20 06:16:45;;;;;;;5.55;3.30;;;;;;;-144.57;100.00;62443.72;5030174;28;20068;-60
2023/12/20 06:19:11;;;;;;;3.20;2.80;;;;;;;-144.57;100.00;62443.72;5031095;28;20544;-59
2023/12/20 06:21:37;;;;;;;4.45;2.80;;;;;;;-144.57;100.00;62443.72;5013561;28;20041;-60
2023/12/20 06:24:03;;;;;;;5.65;3.35;;;;;;;-144.57;100.00;62443.72;5030920;28;20049;-58
2023/12/20 06:26:29;;;;;;;4.50;2.83;;;;;;;-144.57;100.00;62443.72;5030506;28;20056;-59
2023/12/20 06:28:55;;;;;;;4.03;2.85;;;;;;;-144.57;100.00;62443.72;5030817;28;20160;-60
2023/12/20 06:31:21;;;;;;;4.82;3.22;;;;;;;-144.57;100.00;62443.72;4996416;28;20041;-62
2023/12/20 06:33:47;;;;;;;5.20;3.00;;;;;;;-144.57;100.00;62443.72;5032473;28;20077;-60
2023/12/20 06:36:13;;;;;;;4.95;3.05;;;;;;;-144.57;100.00;62443.72;5033930;28;20414;-60
2023/12/20 06:38:39;;;;;;;3.65;3.10;;;;;;;-144.57;100.00;62443.72;5014386;28;20473;-60
2023/12/20 06:41:06;;;;;;;8.15;3.22;;;;;;;-144.57;100.00;62443.72;5035131;28;20176;-60
2023/12/20 06:43:33;;;;;;;4.43;2.80;;;;;;;-144.57;100.00;62443.72;5034417;28;20057;-61
2023/12/20 06:46:00;;;;;;;3.90;3.00;;;;;;;-144.57;100.00;62443.72;5016899;28;20497;-60
2023/12/20 06:48:26;;;;;;;5.78;2.95;;;;;;;-144.57;100.00;62443.72;5034810;28;20041;-59
2023/12/20 06:50:52;;;;;;;3.80;2.70;;;;;;;-144.57;100.00;62443.72;5034681;28;20487;-58
2023/12/20 06:53:18;;;;;;;6.10;2.92;;;;;;;-144.57;100.00;62443.72;5030084;28;20045;-61
2023/12/20 06:55:44;;;;;;;4.70;3.25;;;;;;;-144.57;100.00;62443.72;5023776;28;20037;-61
2023/12/20 06:58:09;;;;;;;4.35;2.90;;;;;;;-144.57;100.00;62443.72;5034786;28;20136;-60
2023/12/20 07:00:36;;;;;;;6.35;3.40;;;;;;;-144.57;100.00;62443.72;5033866;28;20041;-60
2023/12/20 07:03:02;;;;;;;5.03;3.10;;;;;;;-144.57;100.00;62443.72;5032899;28;20641;-59
2023/12/20 07:05:28;;;;;;;5.18;3.17;;;;;;;-144.57;100.00;62443.72;4981209;28;20565;-60
2023/12/20 07:07:54;;;;;;;6.82;2.92;;;;;;;-144.57;100.00;62443.72;5020351;28;20045;-59
2023/12/20 07:10:20;;;;;;;5.05;2.88;;;;;;;-144.57;100.00;62443.72;5020963;28;20148;-60
2023/12/20 07:12:45;;;;;;;6.55;3.33;;;;;;;-144.57;100.00;62443.72;5034152;28;20438;-59
2023/12/20 07:15:11;;;;;;;5.57;3.10;;;;;;;-144.57;100.00;62443.72;5033923;28;20494;-60
2023/12/20 07:17:37;;;;;;;3.05;2.75;;;;;;;-144.57;100.00;62443.72;5034090;28;20045;-59
2023/12/20 07:20:03;;;;;;;5.95;3.10;;;;;;;-144.57;100.00;62443.72;5034295;28;20400;-60
2023/12/20 07:22:33;;;;;;;4.38;2.80;;;;;;;-144.57;100.00;62443.72;5034028;28;20083;-60
2023/12/20 07:25:00;;;;;;;5.00;2.90;;;;;;;-144.57;100.00;62443.72;5034278;28;20052;-60
2023/12/20 07:27:27;;;;;;;4.35;2.85;;;;;;;-144.57;100.00;62443.72;5006956;28;20507;-59
2023/12/20 07:29:52;;;;;;;7.82;3.35;;;;;;;-144.57;100.00;62443.72;4994638;28;20034;-60
2023/12/20 07:32:18;;;;;;;4.50;3.47;;;;;;;-144.57;100.00;62443.72;5033934;28;20091;-61
2023/12/20 07:34:45;;;;;;;6.18;3.15;;;;;;;-144.57;100.00;62443.72;5033759;28;20080;-59
2023/12/20 07:37:11;;;;;;;5.63;2.97;;;;;;;-144.57;100.00;62443.72;5032229;28;20040;-61
2023/12/20 07:39:41;;;;;;;6.13;3.40;;;;;;;-144.57;100.00;62443.72;5034245;28;20550;-61
2023/12/20 07:42:08;;;;;;;6.63;2.63;;;;;;;-144.57;100.00;62443.72;5031613;28;20053;-61
2023/12/20 07:44:35;;;;;;;5.90;3.20;;;;;;;-144.57;100.00;62443.72;5033730;28;20045;-60
2023/12/20 07:47:01;;;;;;;6.05;3.30;;;;;;;-144.57;100.00;62443.72;5018597;28;20037;-60
2023/12/20 07:49:27;;;;;;;4.75;2.58;;;;;;;-144.57;100.00;62443.72;5033541;28;20053;-61
2023/12/20 07:51:53;;;;;;;4.97;2.83;;;;;;;-144.57;100.00;62443.72;5033728;28;20044;-62
2023/12/20 07:54:19;;;;;;;4.10;2.78;;;;;;;-144.57;100.00;62443.72;5034106;28;20037;-60
2023/12/20 07:56:46;;;;;;;4.57;2.97;;;;;;;-144.57;100.00;62443.72;5032422;28;20042;-61
2023/12/20 07:59:12;;;;;;;4.15;2.83;;;;;;;-144.57;100.00;62443.72;5033680;28;20067;-60
2023/12/20 08:01:38;;;;;;;4.05;2.97;;;;;;;-144.57;100.00;62443.72;5032750;28;20455;-61
2023/12/20 08:04:04;;;;;;;3.58;2.67;;;;;;;-144.57;100.00;62443.72;4999601;28;20187;-59
2023/12/20 08:06:30;;;;;;;3.45;2.50;;;;;;;-144.57;100.00;62443.72;5033241;28;20038;-60
2023/12/20 08:08:56;;;;;;;3.88;2.55;;;;;;;-144.57;100.00;62443.72;5015900;28;20633;-60
2023/12/20 08:11:21;;;;;;;5.00;2.42;;;;;;;-144.57;100.00;62443.72;5033244;28;20040;-60
2023/12/20 08:13:47;;;;;;;4.45;2.75;;;;;;;-144.57;100.00;62443.72;5033598;28;20049;-58
2023/12/20 08:16:15;;;;;;;3.95;2.63;;;;;;;-144.57;100.00;62443.72;5033457;28;20044;-58
2023/12/20 08:18:41;;;;;;;5.32;2.40;;;;;;;-144.57;100.00;62443.72;4998720;28;20589;-58
2023/12/20 08:21:08;;;;;;;4.95;2.97;;;;;;;-144.57;100.00;62443.72;5033442;28;20049;-57
2023/12/20 08:23:34;;;;;;;3.67;2.70;;;;;;;-144.57;100.00;62443.72;5011989;28;20083;-59
2023/12/20 08:26:07;;;;;;;3.38;2.55;;;;;;;-144.57;100.00;62443.72;5015383;28;20491;-55
2023/12/20 08:28:33;;;;;;;5.07;2.63;;;;;;;-144.57;100.00;62443.72;5033044;28;20092;-57
2023/12/20 08:31:00;;;;;;;4.07;2.45;;;;;;;-144.57;100.00;62443.72;5033229;28;20459;-59
2023/12/20 08:33:26;;;;;;;2.92;2.63;;;;;;;-144.57;100.00;62443.72;5032596;28;20086;-58
2023/12/20 08:35:52;;;;;;;3.75;2.45;;;;;;;-144.57;100.00;62443.72;5031678;28;20454;-59
2023/12/20 08:38:17;;;;;;;4.43;2.55;;;;;;;-144.57;100.00;62443.72;5031958;28;20057;-63
2023/12/20 08:40:44;;;;;;;5.78;2.90;;;;;;;-144.57;100.00;62443.72;5032705;28;20137;-62
2023/12/20 08:43:10;;;;;;;3.72;2.30;;;;;;;-144.57;100.00;62443.72;5032649;28;20136;-60
2023/12/20 08:45:36;;;;;;;4.25;2.58;;;;;;;-144.57;100.00;62443.72;5032826;28;20120;-63
2023/12/20 08:48:03;;;;;;;4.57;3.03;;;;;;;-144.57;100.00;62443.72;5032479;28;20052;-61
2023/12/20 08:50:29;;;;;;;5.18;2.80;;;;;;;-144.57;100.00;62443.72;5032710;28;20065;-62
2023/12/20 08:52:55;;;;;;;6.20;2.67;;;;;;;-144.57;100.00;62443.72;5032591;28;20045;-61
2023/12/20 08:55:21;;;;;;;4.70;2.85;;;;;;;-144.57;100.00;62443.72;5031286;28;20072;-63
2023/12/20 08:57:47;;;;;;;5.38;2.90;;;;;;;-144.57;100.00;62443.72;5030324;28;20265;-61
2023/12/20 09:00:13;;;;;;;5.25;3.00;;;;;;;-144.57;100.00;62443.72;4998664;28;20045;-61
2023/12/20 09:02:39;;;;;;;5.95;2.92;;;;;;;-144.57;100.00;62443.72;5032474;28;20140;-62
2023/12/20 09:05:05;;;;;;;3.55;2.70;;;;;;;-144.57;100.00;62443.72;5031979;28;20038;-65
2023/12/20 09:07:31;;;;;;;5.68;3.00;;;;;;;-144.57;100.00;62443.72;5021453;28;20042;-61
2023/12/20 09:09:58;;;;;;;5.82;3.05;;;;;;;-144.57;100.00;62443.72;4998507;28;20041;-63
2023/12/20 09:12:24;;;;;;;4.95;3.10;;;;;;;-144.57;100.00;62443.72;5032275;28;20502;-62
2023/12/20 09:14:51;;;;;;;5.22;3.28;;;;;;;-144.57;100.00;62443.72;5016017;28;20037;-62
2023/12/20 09:17:18;;;;;;;4.35;3.33;;;;;;;-144.57;100.00;62443.72;5019370;28;20171;-60
2023/12/20 09:19:44;;;;;;;5.22;2.97;;;;;;;-144.57;100.00;62443.72;5031550;28;20033;-62
2023/12/20 09:22:11;;;;;;;9.10;3.42;;;;;;;-144.57;100.00;62443.72;5031709;28;20041;-61
2023/12/20 09:24:36;;;;;;;4.22;2.88;;;;;;;-144.57;100.00;62443.72;5032295;28;20128;-62
2023/12/20 09:27:02;;;;;;;6.72;3.25;;;;;;;-144.57;100.00;62443.72;5030548;28;20451;-61
2023/12/20 09:29:29;;;;;;;4.78;2.83;;;;;;;-144.57;100.00;62443.72;5018875;28;20042;-60
2023/12/20 09:31:55;;;;;;;4.68;2.92;;;;;;;-144.57;100.00;62443.72;5031907;28;20116;-63
2023/12/20 09:34:21;;;;;;;4.35;2.70;;;;;;;-144.57;100.00;62443.72;5014002;28;20057;-61
2023/12/20 09:36:47;;;;;;;3.92;2.75;;;;;;;-144.57;100.00;62443.72;5014002;28;20048;-62
2023/12/20 09:39:21;;;;;;;4.65;2.70;;;;;;;-144.57;100.00;62443.72;5031536;28;20041;-61
2023/12/20 09:42:04;;;;;;;4.90;3.00;;;;;;;-144.57;100.00;62443.72;5030636;28;20407;-61
2023/12/20 09:44:31;;;;;;;4.63;3.00;;;;;;;-144.57;100.00;62443.72;5016196;28;20076;-60
2023/12/20 09:46:57;;;;;;;3.60;2.72;;;;;;;-144.57;100.00;62443.72;5031312;28;20045;-61
2023/12/20 09:49:23;;;;;;;3.75;2.92;;;;;;;-144.57;100.00;62443.72;5031455;28;20041;-62
2023/12/20 09:51:54;;;;;;;5.38;2.75;;;;;;;-144.57;100.00;62443.72;5030240;28;20561;-62
2023/12/20 09:54:21;;;;;;;3.45;2.53;;;;;;;-144.57;100.00;62443.72;5004807;28;20052;-59
2023/12/20 09:56:47;;;;;;;4.95;2.60;;;;;;;-144.57;100.00;62443.72;5014158;28;20171;-62
2023/12/20 09:59:14;;;;;;;3.83;2.92;;;;;;;-144.57;100.00;62443.72;5013557;28;20095;-61
2023/12/20 10:01:41;;;;;;;3.67;2.90;;;;;;;-144.57;100.00;62443.72;5030939;28;20071;-63
2023/12/20 10:04:09;;;;;;;4.20;2.38;;;;;;;-144.57;100.00;62443.72;5031433;28;20124;-61
2023/12/20 10:06:36;;;;;;;5.57;2.55;;;;;;;-144.57;100.00;62443.72;5031125;28;20040;-63
2023/12/20 10:09:03;;;;;;;4.72;2.40;;;;;;;-144.57;100.00;62443.72;5030878;28;20060;-62
2023/12/20 10:11:29;;;;;;;3.42;2.50;;;;;;;-144.57;100.00;62443.72;5030329;28;20130;-65
2023/12/20 10:14:02;;;;;;;2.60;2.30;;;;;;;-144.57;100.00;62443.72;5031396;28;20128;-61
2023/12/20 10:16:29;;;;;;;3.40;2.13;;;;;;;-144.57;100.00;62443.72;5030524;28;20053;-61
2023/12/20 10:18:55;;;;;;;3.72;2.55;;;;;;;-144.57;100.00;62443.72;5030045;28;20064;-60
2023/12/20 10:21:22;;;;;;;2.60;2.40;;;;;;;-144.57;100.00;62443.72;5030416;28;20041;-62
2023/12/20 10:23:52;;;;;;;3.30;2.30;;;;;;;-144.57;100.00;62443.72;5031222;28;20076;-61
2023/12/20 10:26:25;;;;;;;4.80;2.10;;;;;;;-144.57;100.00;62443.72;4997313;28;20041;-62
2023/12/20 10:28:53;;;;;;;2.67;2.40;;;;;;;-144.57;100.00;62443.72;5029531;28;20407;-61
2023/12/20 10:31:33;;;;;;;2.80;2.30;;;;;;;-144.57;100.00;62443.72;5030447;28;20045;-63
2023/12/20 10:34:01;;;;;;;3.17;2.35;;;;;;;-144.57;100.00;62443.72;5030396;28;20061;-59
2023/12/20 10:36:30;;;;;;;3.28;2.47;;;;;;;-144.57;100.00;62443.72;5029358;28;20156;-58
2023/12/20 10:38:59;;;;;;;3.70;2.22;;;;;;;-144.57;100.00;62443.72;5030788;28;20041;-61
2023/12/20 10:41:27;;;;;;;3.20;2.23;;;;;;;-144.57;100.00;62443.72;5029947;28;20418;-61
2023/12/20 10:44:04;;;;;;;2.63;2.10;;;;;;;-144.57;100.00;62443.72;5031155;28;20454;-59
2023/12/20 10:46:32;;;;;;;3.40;2.20;;;;;;;-144.57;100.00;62443.72;5030948;28;20361;-61
2023/12/20 10:48:58;;;;;;;2.85;2.55;;;;;;;-144.57;100.00;62443.72;5029252;28;20041;-59
2023/12/20 10:51:26;;;;;;;3.83;2.38;;;;;;;-144.57;100.00;62443.72;5030284;28;20051;-60
2023/12/20 10:53:53;;;;;;;6.30;3.42;;;;;;;-144.57;100.00;62443.72;5031145;28;20075;-59
2023/12/20 10:56:20;;;;;;;3.65;2.83;;;;;;;-144.57;100.00;62443.72;5032871;28;20534;-61
2023/12/20 10:58:47;;;;;;;3.08;2.38;;;;;;;-144.57;100.00;62443.72;5009908;28;20050;-60
2023/12/20 11:01:20;;;;;;;3.38;2.10;;;;;;;-144.57;100.00;62443.72;5012805;28;20045;-61
2023/12/20 11:03:53;;;;;;;3.80;2.47;;;;;;;-144.57;100.00;62443.72;5029612;28;20076;-61
2023/12/20 11:06:52;;;;;;;3.22;2.28;;;;;;;-144.57;100.00;62443.72;5030669;28;20491;-61